Time,TemperatureF,DewpointF,PressureIn,WindDirection,WindDirectionDegrees,WindSpeedMPH,WindSpeedGustMPH,Humidity,HourlyPrecipIn,Conditions,Clouds,dailyrainin,SoftwareType,DateUTC
2013-10-16 00:08:00,68.7,48.8,29.79,NW,315,0.0,-999.0,49,-99.99,,,0.00,Acu-Link.com,2013-10-16 07:08:00,
2013-10-16 00:23:00,66.7,48.5,29.79,SSE,157,0.0,-999.0,52,-99.99,,,0.00,Acu-Link.com,2013-10-16 07:23:00,
2013-10-16 00:39:00,67.3,51.1,29.80,WNW,292,3.7,-999.0,56,-99.99,,,0.00,Acu-Link.com,2013-10-16 07:39:00,
2013-10-16 00:54:00,65.7,49.6,29.79,NNE,22,4.2,-999.0,56,-99.99,,,0.00,Acu-Link.com,2013-10-16 07:54:00,
2013-10-16 01:09:00,65.3,48.7,29.80,NNW,337,3.7,-999.0,55,-99.99,,,0.00,Acu-Link.com,2013-10-16 08:09:00,
2013-10-16 01:25:00,64.9,49.3,29.82,NNW,337,3.2,-999.0,57,-99.99,,,0.00,Acu-Link.com,2013-10-16 08:25:00,
2013-10-16 01:41:00,64.8,49.7,29.81,NW,315,2.7,-999.0,58,-99.99,,,0.00,Acu-Link.com,2013-10-16 08:41:00,
2013-10-16 01:56:00,65.5,47.9,29.81,WSW,247,3.2,-999.0,53,-99.99,,,0.00,Acu-Link.com,2013-10-16 08:56:00,
2013-10-16 02:11:00,65.3,45.6,29.81,NW,315,4.7,-999.0,49,-99.99,,,0.00,Acu-Link.com,2013-10-16 09:11:00,
2013-10-16 02:26:00,64.8,43.5,29.82,NNW,337,0.0,-999.0,46,-99.99,,,0.00,Acu-Link.com,2013-10-16 09:26:00,
2013-10-16 02:41:00,64.6,42.2,29.81,NNE,22,3.2,-999.0,44,-99.99,,,0.00,Acu-Link.com,2013-10-16 09:41:00,
2013-10-16 02:57:00,63.9,42.1,29.82,NE,45,0.0,-999.0,45,-99.99,,,0.00,Acu-Link.com,2013-10-16 09:57:00,
2013-10-16 03:12:00,63.5,41.8,29.81,South,180,0.0,-999.0,45,-99.99,,,0.00,Acu-Link.com,2013-10-16 10:12:00,
2013-10-16 03:27:00,62.8,46.4,29.81,NNW,337,1.7,-999.0,55,-99.99,,,0.00,Acu-Link.com,2013-10-16 10:27:00,
2013-10-16 03:43:00,63.0,42.5,29.81,ENE,67,0.0,-999.0,47,-99.99,,,0.00,Acu-Link.com,2013-10-16 10:43:00,
2013-10-16 03:58:00,63.0,43.0,29.81,West,270,2.2,-999.0,48,-99.99,,,0.00,Acu-Link.com,2013-10-16 10:58:00,
2013-10-16 04:13:00,63.3,41.6,29.81,NNW,337,3.7,-999.0,45,-99.99,,,0.00,Acu-Link.com,2013-10-16 11:13:00,
2013-10-16 04:29:00,62.4,41.9,29.81,West,270,2.2,-999.0,47,-99.99,,,0.00,Acu-Link.com,2013-10-16 11:29:00,
2013-10-16 04:44:00,62.8,43.4,29.81,NNW,337,4.2,-999.0,49,-99.99,,,0.00,Acu-Link.com,2013-10-16 11:44:00,
2013-10-16 04:59:00,62.6,41.5,29.82,WSW,247,2.7,-999.0,46,-99.99,,,0.00,Acu-Link.com,2013-10-16 11:59:00,
2013-10-16 05:14:00,62.1,42.2,29.83,NNW,337,4.7,-999.0,48,-99.99,,,0.00,Acu-Link.com,2013-10-16 12:14:00,
2013-10-16 05:29:00,62.1,42.7,29.83,NW,315,3.2,-999.0,49,-99.99,,,0.00,Acu-Link.com,2013-10-16 12:29:00,
2013-10-16 05:44:00,62.2,40.0,29.83,NNW,337,4.2,-999.0,44,-99.99,,,0.00,Acu-Link.com,2013-10-16 12:44:00,
2013-10-16 06:00:00,62.6,39.2,29.83,West,270,5.8,-999.0,42,-99.99,,,0.00,Acu-Link.com,2013-10-16 13:00:00,
2013-10-16 06:15:00,63.7,37.6,29.85,NNE,22,2.7,-999.0,38,-99.99,,,0.00,Acu-Link.com,2013-10-16 13:15:00,
2013-10-16 06:30:00,64.8,36.5,29.85,NNW,337,2.2,-999.0,35,-99.99,,,0.00,Acu-Link.com,2013-10-16 13:30:00,
2013-10-16 06:45:00,65.3,36.9,29.85,NNW,337,2.7,-999.0,35,-99.99,,,0.00,Acu-Link.com,2013-10-16 13:45:00,
2013-10-16 07:01:00,63.5,41.2,29.86,NNE,22,3.7,-999.0,44,-99.99,,,0.00,Acu-Link.com,2013-10-16 14:01:00,
2013-10-16 07:16:00,64.9,34.3,29.86,WNW,292,4.7,-999.0,32,-99.99,,,0.00,Acu-Link.com,2013-10-16 14:16:00,
2013-10-16 07:31:00,64.2,38.1,29.87,West,270,0.0,-999.0,38,-99.99,,,0.00,Acu-Link.com,2013-10-16 14:31:00,
2013-10-16 07:46:00,64.6,38.4,29.87,NW,315,0.0,-999.0,38,-99.99,,,0.00,Acu-Link.com,2013-10-16 14:46:00,
2013-10-16 08:01:00,65.8,36.6,29.88,NW,315,5.3,-999.0,34,-99.99,,,0.00,Acu-Link.com,2013-10-16 15:01:00,
2013-10-16 08:16:00,67.5,38.1,29.87,NW,315,4.7,-999.0,34,-99.99,,,0.00,Acu-Link.com,2013-10-16 15:16:00,
2013-10-16 08:31:00,68.2,35.6,29.89,NNW,337,5.3,-999.0,30,-99.99,,,0.00,Acu-Link.com,2013-10-16 15:31:00,
2013-10-16 08:46:00,69.8,36.1,29.88,NNW,337,4.7,-999.0,29,-99.99,,,0.00,Acu-Link.com,2013-10-16 15:46:00,
2013-10-16 09:02:00,71.6,34.9,29.89,WNW,292,2.2,-999.0,26,-99.99,,,0.00,Acu-Link.com,2013-10-16 16:02:00,
2013-10-16 09:17:00,73.0,31.9,29.89,WNW,292,3.7,-999.0,22,-99.99,,,0.00,Acu-Link.com,2013-10-16 16:17:00,
2013-10-16 09:32:00,74.1,31.7,29.89,NNE,22,1.1,-999.0,21,-99.99,,,0.00,Acu-Link.com,2013-10-16 16:32:00,
2013-10-16 09:47:00,77.7,27.9,29.89,North,0,2.2,-999.0,16,-99.99,,,0.00,Acu-Link.com,2013-10-16 16:47:00,
2013-10-16 10:03:00,77.9,28.1,29.89,NE,45,2.7,-999.0,16,-99.99,,,0.00,Acu-Link.com,2013-10-16 17:03:00,
2013-10-16 10:18:00,78.8,27.2,29.88,ENE,67,3.2,-999.0,15,-99.99,,,0.00,Acu-Link.com,2013-10-16 17:18:00,
2013-10-16 10:33:00,80.4,25.1,29.89,NNE,22,3.2,-999.0,13,-99.99,,,0.00,Acu-Link.com,2013-10-16 17:33:00,
2013-10-16 10:49:00,80.6,25.2,29.89,NE,45,2.7,-999.0,13,-99.99,,,0.00,Acu-Link.com,2013-10-16 17:49:00,
2013-10-16 11:04:00,81.3,25.8,29.89,NNE,22,2.2,-999.0,13,-99.99,,,0.00,Acu-Link.com,2013-10-16 18:04:00,
2013-10-16 11:19:00,82.0,26.3,29.90,NNW,337,3.7,-999.0,13,-99.99,,,0.00,Acu-Link.com,2013-10-16 18:19:00,
2013-10-16 11:35:00,82.8,25.0,29.90,WNW,292,3.7,-999.0,12,-99.99,,,0.00,Acu-Link.com,2013-10-16 18:35:00,
2013-10-16 11:50:00,83.1,25.2,29.90,NW,315,3.2,-999.0,12,-99.99,,,0.00,Acu-Link.com,2013-10-16 18:50:00,
2013-10-16 12:05:00,85.1,24.7,29.89,NNW,337,2.2,-999.0,11,-99.99,,,0.00,Acu-Link.com,2013-10-16 19:05:00,
2013-10-16 12:20:00,83.8,25.8,29.89,NW,315,2.2,-999.0,12,-99.99,,,0.00,Acu-Link.com,2013-10-16 19:20:00,
2013-10-16 12:35:00,84.9,24.5,29.89,SSW,202,5.8,-999.0,11,-99.99,,,0.00,Acu-Link.com,2013-10-16 19:35:00,
2013-10-16 12:50:00,83.8,23.7,29.88,WNW,292,5.8,-999.0,11,-99.99,,,0.00,Acu-Link.com,2013-10-16 19:50:00,
2013-10-16 13:05:00,84.2,26.1,29.88,WSW,247,8.9,-999.0,12,-99.99,,,0.00,Acu-Link.com,2013-10-16 20:05:00,
2013-10-16 13:20:00,84.4,26.2,29.87,WSW,247,5.8,-999.0,12,-99.99,,,0.00,Acu-Link.com,2013-10-16 20:20:00,
2013-10-16 13:36:00,85.3,26.9,29.86,WSW,247,5.3,-999.0,12,-99.99,,,0.00,Acu-Link.com,2013-10-16 20:36:00,
2013-10-16 13:51:00,85.6,25.1,29.86,SW,225,4.7,-999.0,11,-99.99,,,0.00,Acu-Link.com,2013-10-16 20:51:00,
2013-10-16 14:06:00,85.5,25.0,29.86,SSW,202,8.3,-999.0,11,-99.99,,,0.00,Acu-Link.com,2013-10-16 21:06:00,
2013-10-16 14:21:00,85.8,25.2,29.85,SW,225,4.2,-999.0,11,-99.99,,,0.00,Acu-Link.com,2013-10-16 21:21:00,
2013-10-16 14:37:00,86.5,23.5,29.85,WSW,247,2.2,-999.0,10,-99.99,,,0.00,Acu-Link.com,2013-10-16 21:37:00,
2013-10-16 14:52:00,87.3,21.6,29.84,South,180,8.3,-999.0,9,-99.99,,,0.00,Acu-Link.com,2013-10-16 21:52:00,
2013-10-16 15:07:00,86.2,18.0,29.85,WSW,247,5.8,-999.0,8,-99.99,,,0.00,Acu-Link.com,2013-10-16 22:07:00,
2013-10-16 15:23:00,85.8,17.7,29.84,East,90,8.3,-999.0,8,-99.99,,,0.00,Acu-Link.com,2013-10-16 22:23:00,
2013-10-16 15:38:00,85.8,20.5,29.84,SSE,157,6.8,-999.0,9,-99.99,,,0.00,Acu-Link.com,2013-10-16 22:38:00,
2013-10-16 15:53:00,84.9,22.3,29.84,SW,225,3.7,-999.0,10,-99.99,,,0.00,Acu-Link.com,2013-10-16 22:53:00,
2013-10-16 16:08:00,83.1,20.9,29.84,SW,225,4.2,-999.0,10,-99.99,,,0.00,Acu-Link.com,2013-10-16 23:08:00,
2013-10-16 16:23:00,82.9,18.3,29.83,SSW,202,5.8,-999.0,9,-99.99,,,0.00,Acu-Link.com,2013-10-16 23:23:00,
2013-10-16 16:38:00,83.1,20.9,29.83,South,180,4.2,-999.0,10,-99.99,,,0.00,Acu-Link.com,2013-10-16 23:38:00,
2013-10-16 16:54:00,85.1,19.9,29.83,South,180,5.3,-999.0,9,-99.99,,,0.00,Acu-Link.com,2013-10-16 23:54:00,
2013-10-16 17:09:00,86.2,20.8,29.83,SSE,157,3.7,-999.0,9,-99.99,,,0.00,Acu-Link.com,2013-10-17 00:09:00,
2013-10-16 17:24:00,84.2,21.7,29.84,SW,225,2.7,-999.0,10,-99.99,,,0.00,Acu-Link.com,2013-10-17 00:24:00,
2013-10-16 17:39:00,84.6,22.0,29.83,SW,225,2.7,-999.0,10,-99.99,,,0.00,Acu-Link.com,2013-10-17 00:39:00,
2013-10-16 17:54:00,80.4,36.9,29.83,NNW,337,6.3,-999.0,21,-99.99,,,0.00,Acu-Link.com,2013-10-17 00:54:00,
2013-10-16 18:09:00,78.1,39.4,29.84,NNW,337,6.8,-999.0,25,-99.99,,,0.00,Acu-Link.com,2013-10-17 01:09:00,
2013-10-16 18:24:00,76.1,44.1,29.82,NNE,22,8.3,-999.0,32,-99.99,,,0.00,Acu-Link.com,2013-10-17 01:24:00,
2013-10-16 18:39:00,75.6,42.8,29.83,NNE,22,5.8,-999.0,31,-99.99,,,0.00,Acu-Link.com,2013-10-17 01:39:00,
2013-10-16 18:55:00,74.5,42.7,29.82,NNW,337,5.8,-999.0,32,-99.99,,,0.00,Acu-Link.com,2013-10-17 01:55:00,
2013-10-16 19:10:00,72.9,45.8,29.82,NNW,337,7.8,-999.0,38,-99.99,,,0.00,Acu-Link.com,2013-10-17 02:10:00,
2013-10-16 19:25:00,72.5,46.1,29.83,NNW,337,7.3,-999.0,39,-99.99,,,0.00,Acu-Link.com,2013-10-17 02:25:00,
2013-10-16 19:40:00,72.0,45.7,29.83,North,0,6.3,-999.0,39,-99.99,,,0.00,Acu-Link.com,2013-10-17 02:40:00,
2013-10-16 19:55:00,71.8,43.4,29.83,NNW,337,6.3,-999.0,36,-99.99,,,0.00,Acu-Link.com,2013-10-17 02:55:00,
2013-10-16 20:10:00,71.8,43.4,29.84,NNW,337,6.3,-999.0,36,-99.99,,,0.00,Acu-Link.com,2013-10-17 03:10:00,
2013-10-16 20:25:00,71.6,41.7,29.84,NNW,337,5.8,-999.0,34,-99.99,,,0.00,Acu-Link.com,2013-10-17 03:25:00,
2013-10-16 20:40:00,71.4,40.8,29.84,WNW,292,8.3,-999.0,33,-99.99,,,0.00,Acu-Link.com,2013-10-17 03:40:00,
2013-10-16 20:55:00,71.6,40.2,29.84,NW,315,6.3,-999.0,32,-99.99,,,0.00,Acu-Link.com,2013-10-17 03:55:00,
2013-10-16 21:10:00,72.1,35.3,29.84,NNW,337,7.8,-999.0,26,-99.99,,,0.00,Acu-Link.com,2013-10-17 04:10:00,
2013-10-16 21:25:00,71.8,35.1,29.85,NW,315,5.8,-999.0,26,-99.99,,,0.00,Acu-Link.com,2013-10-17 04:25:00,
2013-10-16 21:40:00,71.6,35.8,29.85,NNW,337,4.2,-999.0,27,-99.99,,,0.00,Acu-Link.com,2013-10-17 04:40:00,
2013-10-16 21:56:00,71.8,34.1,29.85,WSW,247,2.2,-999.0,25,-99.99,,,0.00,Acu-Link.com,2013-10-17 04:56:00,
2013-10-16 22:11:00,70.5,42.3,29.85,SSW,202,2.2,-999.0,36,-99.99,,,0.00,Acu-Link.com,2013-10-17 05:11:00,
2013-10-16 22:26:00,70.0,46.5,29.85,ENE,67,0.0,-999.0,43,-99.99,,,0.00,Acu-Link.com,2013-10-17 05:26:00,
2013-10-16 22:41:00,69.4,44.7,29.85,South,180,3.7,-999.0,41,-99.99,,,0.00,Acu-Link.com,2013-10-17 05:41:00,
2013-10-16 22:56:00,69.6,45.5,29.85,South,180,3.2,-999.0,42,-99.99,,,0.00,Acu-Link.com,2013-10-17 05:56:00,
2013-10-16 23:12:00,68.7,48.8,29.85,South,180,2.7,-999.0,49,-99.99,,,0.00,Acu-Link.com,2013-10-17 06:12:00,
2013-10-16 23:28:00,68.5,48.0,29.85,SSE,157,0.0,-999.0,48,-99.99,,,0.00,Acu-Link.com,2013-10-17 06:28:00,
2013-10-16 23:43:00,68.7,50.9,29.85,East,90,0.0,-999.0,53,-99.99,,,0.00,Acu-Link.com,2013-10-17 06:43:00,
2013-10-16 23:59:00,69.3,50.9,29.85,WNW,292,0.0,-999.0,52,-99.99,,,0.00,Acu-Link.com,2013-10-17 06:59:00,